Bookmark and Share
Track history (hours):
 

Island Venture

More information available from US FCC via Universal Licensing System and Coast Guard Vessel Documentation Center.

Last reported at 2014-Apr-19 09:24 UTC. Time now 2014-Apr-20 16:00 UTC.
Position N 47°34' W 122°21'.

Type: Tug. MMSI: 367529420.

NotesDate/timePositionNaut miles runAvg speedWind from/ knotsBaromVisibWave heightAir tempDewpointWater temp
2014-Apr-19 09:24N 47°34' W 122°21'0 0.8
2014-Apr-19 09:21N 47°34' W 122°21'0 0.2
2014-Apr-19 08:33N 47°34' W 122°21'0 0.0
2014-Apr-19 08:31N 47°34' W 122°21'0 0.0
2014-Apr-19 07:33N 47°34' W 122°21'0 0.0
2014-Apr-19 07:31N 47°34' W 122°21'0 0.0
2014-Apr-19 06:34N 47°34' W 122°21'0 0.2
2014-Apr-19 06:31N 47°34' W 122°21'0 0.0
2014-Apr-19 05:51N 47°34' W 122°21'0 0.0
2014-Apr-19 05:33N 47°34' W 122°21'1 0.6
2014-Apr-19 04:33N 47°34' W 122°21'0 2.3
2014-Apr-19 04:31N 47°34' W 122°21'3 2.9
2014-Apr-19 03:34N 47°35' W 122°25'0 6.7
2014-Apr-19 03:31N 47°35' W 122°26'7 6.9
2014-Apr-19 02:33N 47°29' W 122°30'1 6.8
2014-Apr-19 02:21N 47°28' W 122°31'6 7.3
2014-Apr-19 01:33N 47°22' W 122°32'5 4.8
2014-Apr-19 00:33N 47°17' W 122°33'2 1.7
2014-Apr-18 23:33N 47°16' W 122°34'4 4.4
2014-Apr-18 22:33N 47°12' W 122°37'4 4.0
2014-Apr-18 21:32N 47°08' W 122°39'0 0.0
2014-Apr-18 18:11N 47°08' W 122°39'0 0.0
2014-Apr-18 17:18N 47°08' W 122°39'0 0.1
2014-Apr-18 16:32N 47°08' W 122°39'1 0.5
2014-Apr-18 15:31N 47°09' W 122°38'0 0.0
2014-Apr-18 14:24N 47°09' W 122°38'0 0.0
2014-Apr-18 13:18N 47°09' W 122°38'3 3.3
2014-Apr-18 12:24N 47°11' W 122°37'7 8.1
2014-Apr-18 11:31N 47°18' W 122°33'7 7.1
2014-Apr-18 10:33N 47°25' W 122°32'6 6.1
2014-Apr-18 09:32N 47°31' W 122°29'6 5.9
2014-Apr-18 08:32N 47°36' W 122°25'0 5.4
2014-Apr-18 08:29N 47°36' W 122°24'3 3.4
2014-Apr-18 07:33N 47°34' W 122°21'0 6.3
2014-Apr-18 07:29N 47°34' W 122°21'0 0.0
2014-Apr-16 18:14N 47°34' W 122°21'0 4.8
2014-Apr-16 18:13N 47°34' W 122°21'1 1.2
2014-Apr-16 17:33N 47°35' W 122°22'0 0.0
2014-Apr-16 17:33N 47°35' W 122°22'2 1.7
2014-Apr-16 16:33N 47°34' W 122°21'0 0.0
2014-Apr-16 16:33N 47°34' W 122°21'2 2.1
2014-Apr-16 15:33N 47°36' W 122°22'0 3.0
2014-Apr-16 15:32N 47°36' W 122°22'1 1.3
2014-Apr-16 14:33N 47°34' W 122°21'0 2.2
2014-Apr-16 14:33N 47°34' W 122°21'1 0.5
2014-Apr-16 13:33N 47°34' W 122°21'0 0.0
2014-Apr-16 13:33N 47°34' W 122°21'0 0.3
2014-Apr-16 12:33N 47°34' W 122°21'0 0.0
2014-Apr-16 12:33N 47°34' W 122°21'0 0.0
2014-Apr-16 11:33N 47°34' W 122°21'0 0.7
2014-Apr-16 11:33N 47°34' W 122°21'0 0.0
2014-Apr-16 10:33N 47°34' W 122°21'0 0.0
2014-Apr-16 10:33N 47°34' W 122°21'0 0.0
2014-Apr-16 09:33N 47°34' W 122°21'0 0.4
2014-Apr-16 09:33N 47°34' W 122°21'0 0.0
2014-Apr-16 08:33N 47°34' W 122°21'0 0.0
2014-Apr-16 08:33N 47°34' W 122°21'0 0.0
2014-Apr-16 07:33N 47°34' W 122°21'0 0.0
2014-Apr-16 07:33N 47°34' W 122°21'0 0.0
2014-Apr-16 06:32N 47°34' W 122°21'0 0.0
2014-Apr-16 06:32N 47°34' W 122°21'1 0.9
2014-Apr-16 05:47N 47°34' W 122°21'0 0.1
2014-Apr-16 05:33N 47°34' W 122°21'0 0.0
2014-Apr-16 04:33N 47°34' W 122°21'0 0.9
2014-Apr-16 04:32N 47°34' W 122°21'1 1.3
2014-Apr-16 03:33N 47°36' W 122°22'0 0.3
2014-Apr-16 03:32N 47°36' W 122°22'3 2.9
2014-Apr-16 02:33N 47°34' W 122°26'0 6.1
2014-Apr-16 02:32N 47°34' W 122°26'7 6.8
2014-Apr-16 01:33N 47°28' W 122°24'1 6.8
2014-Apr-16 01:27N 47°27' W 122°23'5 5.7
2014-Apr-16 00:33N 47°22' W 122°22'5 5.4
2014-Apr-15 23:33N 47°17' W 122°26'3 2.9
2014-Apr-15 22:33N 47°15' W 122°23'0 0.4
2014-Apr-15 21:33N 47°16' W 122°23'0 0.0
2014-Apr-15 20:33N 47°16' W 122°23'0 0.2
2014-Apr-15 19:32N 47°16' W 122°23'0 0.0
2014-Apr-15 18:33N 47°16' W 122°23'0 0.2
2014-Apr-15 17:33N 47°16' W 122°23'0 0.3
2014-Apr-15 16:33N 47°16' W 122°24'0 0.0
2014-Apr-15 15:33N 47°16' W 122°24'0 0.1
2014-Apr-15 14:33N 47°16' W 122°24'2 1.1
2014-Apr-15 12:34N 47°17' W 122°26'1 1.0
2014-Apr-15 11:34N 47°18' W 122°28'2 2.2
2014-Apr-15 10:34N 47°19' W 122°30'2 2.3
2014-Apr-15 09:34N 47°21' W 122°32'7 7.8
2014-Apr-15 08:41N 47°28' W 122°31'328.9
2014-Apr-15 08:34N 47°24' W 122°32'4 3.9
2014-Apr-15 07:34N 47°28' W 122°31'819.8
2014-Apr-15 07:11N 47°35' W 122°26'2 3.2
2014-Apr-15 06:34N 47°33' W 122°27'5108.6
2014-Apr-15 06:31N 47°36' W 122°22'1 1.9
2014-Apr-15 05:51N 47°35' W 122°22'1 4.7
2014-Apr-15 05:34N 47°36' W 122°22'2 1.6
2014-Apr-15 04:31N 47°34' W 122°21'0 0.0
2014-Apr-15 03:34N 47°34' W 122°21'  
2014-Apr-12 02:14N 47°34' W 122°21'0 0.0
2014-Apr-12 02:13N 47°34' W 122°21'1 1.4
2014-Apr-12 01:34N 47°35' W 122°22'0 2.6
2014-Apr-12 01:24N 47°35' W 122°22'2 1.8
2014-Apr-12 00:33N 47°34' W 122°21'0 1.4
2014-Apr-12 00:29N 47°34' W 122°21'2 2.6
2014-Apr-11 23:34N 47°36' W 122°23'0 0.0
2014-Apr-11 23:34N 47°36' W 122°23'6 5.7
2014-Apr-11 22:34N 47°40' W 122°28'2 6.2
2014-Apr-11 22:18N 47°42' W 122°28'5 6.5
2014-Apr-11 21:34N 47°46' W 122°27'015.4
2014-Apr-11 21:34N 47°46' W 122°27'6 6.3
2014-Apr-11 20:34N 47°53' W 122°29'032.4
2014-Apr-11 20:33N 47°53' W 122°29'6 6.4
2014-Apr-11 19:34N 47°58' W 122°35'8 6.5
2014-Apr-11 18:23N 48°04' W 122°40'6 6.4
2014-Apr-11 17:25N 48°10' W 122°45'5 5.5
2014-Apr-11 16:29N 48°14' W 122°48'7 6.3
2014-Apr-11 15:22N 48°21' W 122°46'5 6.4
2014-Apr-11 14:34N 48°26' W 122°44'7 7.2
2014-Apr-11 13:34N 48°33' W 122°45'7 6.5
2014-Apr-11 12:33N 48°40' W 122°43'5 5.4
2014-Apr-11 11:33N 48°45' W 122°47'6 5.8
2014-Apr-11 10:34N 48°48' W 122°54'6 5.9
2014-Apr-11 09:33N 48°51' W 123°02'6 5.6
2014-Apr-11 08:33N 48°54' W 123°09'6 5.6
2014-Apr-11 07:34N 48°58' W 123°16'6 6.2
2014-Apr-11 06:34N 49°02' W 123°23'6 5.9
2014-Apr-11 05:34N 49°06' W 123°29'6 6.4
2014-Apr-11 04:33N 49°11' W 123°36'7 6.5
2014-Apr-11 03:33N 49°15' W 123°43'6 6.5
2014-Apr-11 02:33N 49°19' W 123°51'6 6.4
2014-Apr-11 01:33N 49°23' W 123°58'7 6.7
2014-Apr-11 00:33N 49°28' W 124°06'6 6.1
2014-Apr-10 23:33N 49°31' W 124°14'6 6.2
2014-Apr-10 22:33N 49°34' W 124°22'6 6.1
2014-Apr-10 21:33N 49°38' W 124°30'5 4.6
2014-Apr-10 20:33N 49°42' W 124°33'0 0.0
2014-Apr-10 19:31N 49°42' W 124°33'0 0.3
2014-Apr-10 18:33N 49°42' W 124°33'0 0.0
2014-Apr-10 17:30N 49°42' W 124°33'0 0.0
2014-Apr-10 16:25N 49°42' W 124°33'0 0.0
2014-Apr-10 15:11N 49°42' W 124°33'0 0.1
2014-Apr-10 14:33N 49°42' W 124°33'1 0.6
2014-Apr-10 13:33N 49°41' W 124°33'2 2.4
2014-Apr-10 12:33N 49°39' W 124°32'1 0.6
2014-Apr-10 11:34N 49°39' W 124°31'4 4.3
2014-Apr-10 10:33N 49°36' W 124°26'5 5.1
2014-Apr-10 09:33N 49°33' W 124°20'6 6.2
2014-Apr-10 08:33N 49°30' W 124°11'5 5.0
2014-Apr-10 07:33N 49°27' W 124°06'4 4.3
2014-Apr-10 06:33N 49°24' W 124°00'5 4.6
2014-Apr-10 05:33N 49°22' W 123°55'5 4.6
2014-Apr-10 04:33N 49°19' W 123°49'5 4.5
2014-Apr-10 03:34N 49°16' W 123°43'5 4.5
2014-Apr-10 02:33N 49°13' W 123°38'5 5.1
2014-Apr-10 01:34N 49°10' W 123°32'5 5.1
2014-Apr-10 00:34N 49°07' W 123°26'5 5.0
2014-Apr-09 23:34N 49°04' W 123°20'4 4.5
2014-Apr-09 22:34N 49°01' W 123°15'5 4.6
2014-Apr-09 21:34N 48°58' W 123°10'5 5.0
2014-Apr-09 20:34N 48°54' W 123°04'5 5.2
2014-Apr-09 19:34N 48°51' W 122°58'5 5.2
2014-Apr-09 18:32N 48°48' W 122°52'6 6.4
2014-Apr-09 17:33N 48°44' W 122°44'6 5.9
2014-Apr-09 16:34N 48°38' W 122°44'6 5.5
2014-Apr-09 15:34N 48°32' W 122°45'5 5.4
2014-Apr-09 14:33N 48°27' W 122°44'6 5.8
2014-Apr-09 13:33N 48°21' W 122°45'8 5.7
2014-Apr-09 12:10N 48°13' W 122°48'12 7.3
2014-Apr-09 10:28N 48°03' W 122°38'6 6.8
2014-Apr-09 09:33N 47°58' W 122°34'  

Dump ship's entire track history

sailing weather and tide predictions

Island Venture — WDG3765 — position and weather